createdAt,value
2023-01-11T00:00:56.059Z,1.10
2023-01-11T00:03:23.542Z,1.13
2023-01-11T00:05:50.979Z,1.10
2023-01-11T00:08:19.175Z,1.50
2023-01-11T00:10:48.022Z,1.00
2023-01-11T00:13:15.680Z,1.80
2023-01-11T00:15:43.249Z,1.40
2023-01-11T00:18:10.837Z,1.10
2023-01-11T00:20:39.916Z,1.57
2023-01-11T00:23:07.475Z,0.90
2023-01-11T00:25:34.936Z,0.90
2023-01-11T00:28:05.162Z,1.40
2023-01-11T00:30:32.661Z,0.80
2023-01-11T00:33:00.838Z,1.33
2023-01-11T00:35:30.550Z,0.80
2023-01-11T00:37:58.045Z,1.10
2023-01-11T00:40:26.327Z,1.33
2023-01-11T00:43:11.365Z,1.03
2023-01-11T00:46:03.222Z,1.70
2023-01-11T00:48:30.730Z,1.70
2023-01-11T00:50:59.249Z,1.10
2023-01-11T00:53:26.685Z,1.27
2023-01-11T00:55:54.157Z,1.00
2023-01-11T00:58:21.612Z,1.00
2023-01-11T01:00:50.411Z,1.37
2023-01-11T01:03:17.943Z,1.13
2023-01-11T01:05:45.423Z,1.60
2023-01-11T01:08:12.903Z,1.00
2023-01-11T01:10:40.387Z,1.00
2023-01-11T01:13:25.108Z,1.10
2023-01-11T01:15:58.715Z,1.10
2023-01-11T01:18:26.257Z,1.20
2023-01-11T01:20:53.736Z,0.93
2023-01-11T01:23:21.193Z,0.97
2023-01-11T01:25:48.604Z,1.10
2023-01-11T01:28:16.743Z,1.20
2023-01-11T01:30:44.224Z,0.83
2023-01-11T01:33:13.063Z,1.10
2023-01-11T01:35:40.526Z,0.97
2023-01-11T01:38:08.015Z,1.43
2023-01-11T01:40:41.553Z,1.10
2023-01-11T01:43:10.239Z,1.00
2023-01-11T01:45:37.719Z,1.20
2023-01-11T01:48:06.826Z,1.47
2023-01-11T01:50:37.169Z,1.00
2023-01-11T01:53:06.704Z,1.87
2023-01-11T01:55:35.981Z,0.93
2023-01-11T01:58:05.837Z,1.90
2023-01-11T02:00:33.707Z,0.77
2023-01-11T02:03:02.204Z,0.90
2023-01-11T02:05:29.824Z,1.50
2023-01-11T02:07:59.091Z,0.83
2023-01-11T02:10:28.868Z,2.73
2023-01-11T02:12:59.283Z,0.90
2023-01-11T02:15:26.910Z,0.83
2023-01-11T02:17:54.372Z,0.83
2023-01-11T02:20:33.814Z,0.90
2023-01-11T02:23:19.947Z,1.00
2023-01-11T02:26:08.363Z,0.93
2023-01-11T02:28:39.913Z,0.93
2023-01-11T02:31:11.352Z,1.20
2023-01-11T02:33:43.195Z,0.93
2023-01-11T02:36:14.240Z,1.00
2023-01-11T02:38:43.177Z,0.97
2023-01-11T02:41:17.860Z,0.90
2023-01-11T02:44:06.952Z,1.07
2023-01-11T02:46:36.079Z,1.00
2023-01-11T02:49:09.430Z,0.87
2023-01-11T02:51:40.193Z,0.90
2023-01-11T02:54:09.398Z,1.07
2023-01-11T02:56:39.269Z,0.80
2023-01-11T02:59:08.716Z,0.90
2023-01-11T03:01:44.430Z,0.90
2023-01-11T03:04:22.440Z,1.80
2023-01-11T03:06:49.907Z,1.60
2023-01-11T03:09:24.309Z,1.00
2023-01-11T03:12:17.587Z,0.80
2023-01-11T03:14:51.931Z,0.90
2023-01-11T03:17:26.909Z,1.00
2023-01-11T03:19:55.427Z,1.10
2023-01-11T03:22:26.021Z,1.57
2023-01-11T03:24:56.242Z,1.03
2023-01-11T03:27:30.254Z,0.90
2023-01-11T03:30:04.201Z,1.40
2023-01-11T03:32:34.681Z,1.20
2023-01-11T03:35:07.531Z,1.10
2023-01-11T03:37:38.098Z,1.00
2023-01-11T03:40:09.524Z,0.80
2023-01-11T03:42:58.076Z,0.90
2023-01-11T03:45:27.807Z,0.80
2023-01-11T03:47:55.934Z,0.93
2023-01-11T03:50:23.725Z,0.80
2023-01-11T03:52:51.670Z,1.00
2023-01-11T03:55:19.345Z,1.50
2023-01-11T03:57:51.294Z,0.93
2023-01-11T04:00:19.350Z,1.00
2023-01-11T04:02:48.391Z,1.07
2023-01-11T04:05:16.077Z,0.83
2023-01-11T04:07:43.539Z,0.90
2023-01-11T04:10:11.650Z,0.90
2023-01-11T04:12:39.131Z,1.10
2023-01-11T04:15:07.060Z,1.00
2023-01-11T04:17:34.482Z,1.13
2023-01-11T04:20:03.276Z,0.87
2023-01-11T04:22:30.795Z,0.83
2023-01-11T04:24:58.208Z,0.90
2023-01-11T04:27:25.821Z,1.00
2023-01-11T04:29:53.258Z,1.20
2023-01-11T04:32:20.726Z,1.13
2023-01-11T04:34:48.207Z,1.23
2023-01-11T04:37:17.028Z,0.90
2023-01-11T04:39:44.507Z,1.00
2023-01-11T04:42:21.578Z,1.00
2023-01-11T04:44:49.367Z,1.23
2023-01-11T04:47:17.129Z,1.00
2023-01-11T04:49:44.832Z,0.97
2023-01-11T04:52:13.069Z,0.70
2023-01-11T04:54:42.241Z,0.80
2023-01-11T04:57:11.545Z,0.93
2023-01-11T04:59:39.021Z,1.20
2023-01-11T05:02:06.581Z,1.00
2023-01-11T05:04:34.055Z,1.10
2023-01-11T05:07:02.183Z,1.20
2023-01-11T05:09:29.818Z,1.07
2023-01-11T05:11:58.647Z,0.90
2023-01-11T05:14:26.075Z,0.93
2023-01-11T05:16:53.596Z,1.00
2023-01-11T05:19:21.144Z,1.00
2023-01-11T05:21:48.674Z,1.10
2023-01-11T05:24:16.833Z,1.00
2023-01-11T05:26:45.393Z,1.10
2023-01-11T05:29:16.119Z,2.97
2023-01-11T05:31:43.782Z,1.03
2023-01-11T05:34:12.912Z,8.33
2023-01-11T05:36:40.391Z,18.57
2023-01-11T05:39:07.959Z,14.13
2023-01-11T05:41:35.431Z,11.97
2023-01-11T05:44:20.431Z,2.53
2023-01-11T05:46:49.516Z,1.73
2023-01-11T05:49:17.096Z,1.37
2023-01-11T05:51:44.893Z,9.20
2023-01-11T05:54:13.373Z,3.73
2023-01-11T05:56:42.346Z,2.00
2023-01-11T05:59:09.865Z,1.70
2023-01-11T06:01:37.547Z,1.30
2023-01-11T06:04:06.362Z,1.30
2023-01-11T06:06:34.112Z,1.17
2023-01-11T06:09:02.097Z,1.00
2023-01-11T06:11:29.542Z,0.97
2023-01-11T06:13:56.991Z,1.10
2023-01-11T06:16:24.622Z,1.33
2023-01-11T06:18:53.213Z,1.43
2023-01-11T06:21:22.211Z,1.10
2023-01-11T06:23:51.608Z,1.50
2023-01-11T06:26:20.102Z,1.93
2023-01-11T06:28:47.740Z,1.97
2023-01-11T06:31:17.358Z,1.70
2023-01-11T06:33:45.838Z,2.03
2023-01-11T06:36:13.771Z,1.87
2023-01-11T06:38:43.008Z,1.70
2023-01-11T06:41:11.181Z,1.57
2023-01-11T06:43:41.429Z,2.20
2023-01-11T06:46:11.082Z,2.50
2023-01-11T06:48:38.596Z,4.50
2023-01-11T06:51:06.117Z,2.40
2023-01-11T06:53:33.583Z,4.33
2023-01-11T06:56:03.231Z,4.10
2023-01-11T06:58:30.694Z,2.70
2023-01-11T07:00:58.521Z,2.53
2023-01-11T07:03:26.711Z,2.43
2023-01-11T07:05:56.518Z,2.20
2023-01-11T07:08:24.410Z,2.30
2023-01-11T07:10:52.137Z,2.00
2023-01-11T07:13:21.245Z,1.80
2023-01-11T07:15:50.512Z,1.60
2023-01-11T07:18:18.440Z,1.30
2023-01-11T07:20:45.908Z,2.30
2023-01-11T07:23:13.409Z,1.33
2023-01-11T07:25:41.196Z,2.87
2023-01-11T07:28:09.474Z,1.33
2023-01-11T07:30:56.065Z,2.83
2023-01-11T07:33:24.258Z,1.30
2023-01-11T07:35:51.721Z,1.50
2023-01-11T07:38:19.313Z,2.33
2023-01-11T07:40:46.846Z,1.83
2023-01-11T07:43:14.923Z,1.70
2023-01-11T07:45:46.669Z,1.70
2023-01-11T07:48:15.295Z,1.70
2023-01-11T07:50:45.150Z,2.03
2023-01-11T07:53:13.392Z,1.80
2023-01-11T07:55:41.001Z,1.70
2023-01-11T07:58:09.311Z,1.90
2023-01-11T08:00:36.826Z,4.20
2023-01-11T08:03:05.681Z,3.10
2023-01-11T08:05:33.261Z,2.77
2023-01-11T08:08:00.749Z,2.40
2023-01-11T08:10:28.436Z,2.30
2023-01-11T08:13:13.408Z,4.40
2023-01-11T08:15:42.351Z,2.23
2023-01-11T08:18:12.346Z,2.13
2023-01-11T08:20:39.901Z,3.37
2023-01-11T08:23:08.721Z,1.93
2023-01-11T08:25:36.370Z,0.80
2023-01-11T08:28:04.292Z,0.70
2023-01-11T08:30:32.087Z,0.60
2023-01-11T08:33:02.127Z,1.17
2023-01-11T08:35:31.344Z,1.03
2023-01-11T08:37:58.950Z,0.70
2023-01-11T08:40:26.394Z,0.80
2023-01-11T08:42:55.291Z,0.80
2023-01-11T08:45:22.731Z,0.60
2023-01-11T08:47:51.812Z,0.70
2023-01-11T08:50:19.674Z,0.50
2023-01-11T08:52:50.615Z,0.70
2023-01-11T08:55:18.236Z,0.60
2023-01-11T08:57:45.970Z,0.87
2023-01-11T09:00:13.961Z,0.60
2023-01-11T09:02:41.663Z,1.03
2023-01-11T09:05:09.630Z,0.80
2023-01-11T09:07:37.131Z,0.70
2023-01-11T09:10:06.350Z,1.03
2023-01-11T09:12:33.842Z,0.80
2023-01-11T09:15:02.129Z,0.90
2023-01-11T09:17:29.614Z,0.70
2023-01-11T09:19:57.081Z,0.70
2023-01-11T09:22:24.569Z,0.60
2023-01-11T09:24:52.041Z,0.83
2023-01-11T09:27:20.869Z,0.73
2023-01-11T09:29:48.408Z,0.83
2023-01-11T09:32:15.873Z,1.17
2023-01-11T09:34:46.828Z,0.83
2023-01-11T09:37:14.386Z,1.80
2023-01-11T09:39:41.898Z,0.90
2023-01-11T09:42:31.669Z,0.83
2023-01-11T09:45:05.232Z,0.80
2023-01-11T09:47:36.664Z,0.83
2023-01-11T09:50:06.226Z,1.77
2023-01-11T09:52:38.136Z,1.53
2023-01-11T09:55:07.222Z,0.80
2023-01-11T09:57:42.601Z,0.73
2023-01-11T10:00:16.417Z,1.07
2023-01-11T10:02:51.361Z,0.90
2023-01-11T10:05:29.654Z,0.60
2023-01-11T10:18:25.903Z,0.80
2023-01-11T10:19:37.473Z,0.80
2023-01-11T10:22:10.326Z,0.80
2023-01-11T10:24:42.017Z,0.80
2023-01-11T10:27:13.661Z,0.80
2023-01-11T10:30:10.449Z,0.80
2023-01-11T10:32:53.978Z,2.60
2023-01-11T10:35:38.465Z,0.93
2023-01-11T10:38:30.673Z,2.43
2023-01-11T10:41:04.646Z,0.70
2023-01-11T10:43:32.995Z,1.00
2023-01-11T10:46:03.948Z,0.70
2023-01-11T10:48:34.319Z,0.80
2023-01-11T10:51:04.096Z,0.80
2023-01-11T10:53:34.896Z,1.37
2023-01-11T10:56:06.240Z,0.90
2023-01-11T10:58:46.085Z,0.80
2023-01-11T11:01:24.332Z,1.10
2023-01-11T11:04:03.400Z,0.83
2023-01-11T11:06:35.235Z,0.80
2023-01-11T11:09:07.405Z,0.73
2023-01-11T11:11:36.569Z,0.90
2023-01-11T11:14:08.989Z,0.87
2023-01-11T11:16:42.177Z,1.00
2023-01-11T11:19:12.096Z,0.80
2023-01-11T11:21:41.363Z,0.90
2023-01-11T11:24:14.829Z,0.90
2023-01-11T11:26:44.961Z,0.90
2023-01-11T11:29:20.258Z,0.90
2023-01-11T11:31:48.372Z,0.90
2023-01-11T11:34:18.659Z,0.87
2023-01-11T11:36:47.327Z,0.90
2023-01-11T11:39:20.416Z,1.47
2023-01-11T11:41:49.264Z,1.17
2023-01-11T11:44:18.433Z,0.90
2023-01-11T11:46:57.169Z,1.73
2023-01-11T11:49:26.208Z,2.67
2023-01-11T11:51:53.921Z,2.57
2023-01-11T11:54:27.734Z,2.40
2023-01-11T11:56:55.803Z,0.93
2023-01-11T11:59:24.470Z,1.27
2023-01-11T12:01:57.711Z,1.00
2023-01-11T12:04:32.198Z,3.23
2023-01-11T12:07:06.283Z,1.17
2023-01-11T12:09:34.699Z,1.10
2023-01-11T12:12:03.199Z,1.10
2023-01-11T12:14:32.014Z,1.00
2023-01-11T12:16:59.864Z,1.23
2023-01-11T12:19:30.082Z,1.97
2023-01-11T12:22:16.720Z,1.00
2023-01-11T12:24:44.195Z,0.80
2023-01-11T12:27:15.333Z,1.10
2023-01-11T12:29:59.885Z,1.13
2023-01-11T12:32:46.169Z,0.90
2023-01-11T12:35:21.195Z,0.90
2023-01-11T12:38:00.671Z,1.00
2023-01-11T12:40:34.203Z,1.10
2023-01-11T12:43:08.245Z,1.20
2023-01-11T12:45:41.001Z,1.23
2023-01-11T12:48:17.571Z,1.47
2023-01-11T12:50:54.357Z,1.17
2023-01-11T12:53:29.707Z,0.90
2023-01-11T12:56:00.829Z,0.97
2023-01-11T12:58:32.630Z,1.07
2023-01-11T13:01:07.081Z,1.30
2023-01-11T13:03:44.839Z,1.20
2023-01-11T13:06:15.857Z,1.13
2023-01-11T13:08:49.489Z,1.00
2023-01-11T13:11:35.048Z,1.03
2023-01-11T13:14:14.370Z,1.20
2023-01-11T13:16:44.472Z,1.10
2023-01-11T13:19:16.025Z,1.37
2023-01-11T13:21:53.200Z,1.10
2023-01-11T13:24:25.353Z,1.37
2023-01-11T13:26:55.052Z,1.30
2023-01-11T13:29:25.509Z,1.40
2023-01-11T13:31:54.269Z,1.10
2023-01-11T13:34:24.617Z,0.97
2023-01-11T13:36:56.698Z,1.30
2023-01-11T13:39:28.385Z,1.20
2023-01-11T13:41:56.775Z,1.30
2023-01-11T13:44:26.075Z,1.37
2023-01-11T13:46:57.936Z,1.10
2023-01-11T13:49:40.243Z,1.33
2023-01-11T13:52:12.686Z,1.30
2023-01-11T13:54:42.851Z,1.47
2023-01-11T13:57:14.167Z,1.47
2023-01-11T13:59:45.855Z,4.47
2023-01-11T14:02:18.260Z,1.53
2023-01-11T14:04:47.634Z,1.27
2023-01-11T14:07:24.011Z,1.30
2023-01-11T14:10:00.742Z,1.90
2023-01-11T14:12:35.402Z,1.30
2023-01-11T14:15:07.844Z,1.10
2023-01-11T14:17:43.393Z,1.50
2023-01-11T14:20:15.372Z,1.77
2023-01-11T14:22:48.157Z,1.20
2023-01-11T14:25:17.781Z,1.30
2023-01-11T14:27:55.140Z,2.20
2023-01-11T14:30:41.049Z,2.40
2023-01-11T14:33:26.423Z,1.40
2023-01-11T14:36:00.467Z,1.13
2023-01-11T14:38:49.942Z,1.10
2023-01-11T14:41:38.276Z,1.30
2023-01-11T14:44:22.645Z,1.13
2023-01-11T14:46:53.239Z,1.30
2023-01-11T14:49:29.440Z,1.10
2023-01-11T14:51:59.413Z,1.27
2023-01-11T14:54:29.235Z,1.30
2023-01-11T14:56:57.090Z,1.30
2023-01-11T14:59:27.096Z,1.10
2023-01-11T15:02:13.332Z,1.40
2023-01-11T15:05:03.322Z,2.00
2023-01-11T15:07:35.340Z,1.30
2023-01-11T15:10:04.515Z,1.07
2023-01-11T15:12:34.142Z,1.33
2023-01-11T15:15:05.119Z,1.37
2023-01-11T15:17:50.222Z,1.60
2023-01-11T15:20:18.144Z,1.10
2023-01-11T15:22:46.268Z,1.30
2023-01-11T15:25:21.807Z,1.27
2023-01-11T15:27:49.460Z,1.20
2023-01-11T15:30:31.772Z,1.30
2023-01-11T15:33:14.096Z,1.13
2023-01-11T15:35:42.966Z,1.10
2023-01-11T15:38:13.753Z,1.00
2023-01-11T15:40:42.434Z,1.20
2023-01-11T15:43:27.407Z,1.40
2023-01-11T15:46:18.519Z,1.20
2023-01-11T15:48:56.171Z,1.20
2023-01-11T15:51:35.566Z,1.20
2023-01-11T15:54:16.889Z,1.30
2023-01-11T15:56:58.942Z,1.47
2023-01-11T15:59:50.430Z,1.40
2023-01-11T16:02:35.477Z,1.50
2023-01-11T16:05:13.624Z,1.20
2023-01-11T16:07:44.351Z,1.60
2023-01-11T16:10:24.505Z,1.40
2023-01-11T16:12:58.412Z,1.40
2023-01-11T16:15:35.579Z,1.60
2023-01-11T16:18:06.405Z,1.50
2023-01-11T16:20:33.896Z,2.43
2023-01-11T16:23:03.552Z,1.43
2023-01-11T16:25:32.586Z,1.30
2023-01-11T16:28:00.690Z,1.70
2023-01-11T16:30:28.730Z,1.50
2023-01-11T16:33:11.029Z,1.80
2023-01-11T16:35:38.485Z,1.50
2023-01-11T16:38:11.278Z,1.70
2023-01-11T16:40:40.820Z,1.93
2023-01-11T16:43:09.650Z,1.57
2023-01-11T16:45:40.524Z,1.90
2023-01-11T16:48:13.611Z,1.43
2023-01-11T16:50:42.155Z,1.57
2023-01-11T16:53:12.773Z,1.70
2023-01-11T16:55:42.420Z,1.70
2023-01-11T16:58:21.428Z,1.80
2023-01-11T17:00:56.676Z,1.97
2023-01-11T17:03:25.932Z,1.77
2023-01-11T17:05:58.456Z,1.87
2023-01-11T17:08:28.591Z,2.10
2023-01-11T17:10:57.753Z,1.93
2023-01-11T17:13:53.371Z,1.80
2023-01-11T17:16:22.317Z,1.87
2023-01-11T17:18:50.038Z,2.20
2023-01-11T17:21:19.259Z,2.30
2023-01-11T17:23:48.752Z,4.27
2023-01-11T17:26:18.005Z,2.10
2023-01-11T17:28:45.887Z,2.30
2023-01-11T17:31:19.540Z,2.20
2023-01-11T17:33:48.037Z,2.03
2023-01-11T17:36:16.036Z,1.87
2023-01-11T17:38:44.498Z,1.50
2023-01-11T17:41:27.787Z,2.10
2023-01-11T17:44:13.016Z,1.60
2023-01-11T17:46:40.993Z,1.47
2023-01-11T17:49:19.022Z,1.90
2023-01-11T17:51:46.485Z,1.90
2023-01-11T17:54:19.564Z,1.77
2023-01-11T17:56:51.708Z,1.93
2023-01-11T17:59:21.246Z,1.70
2023-01-11T18:01:49.841Z,1.93
2023-01-11T18:04:19.388Z,1.93
2023-01-11T18:06:48.363Z,2.00
2023-01-11T18:09:22.057Z,2.60
2023-01-11T18:11:51.937Z,2.70
2023-01-11T18:14:20.922Z,2.80
2023-01-11T18:16:58.665Z,3.00
2023-01-11T18:19:32.405Z,2.67
2023-01-11T18:21:59.850Z,3.00
2023-01-11T18:24:30.423Z,2.97
2023-01-11T18:27:15.018Z,2.97
2023-01-11T18:29:50.073Z,3.00
2023-01-11T18:32:17.662Z,2.80
2023-01-11T18:34:46.789Z,2.80
2023-01-11T18:37:14.324Z,2.67
2023-01-11T18:39:42.739Z,2.60
2023-01-11T18:42:15.624Z,2.60
2023-01-11T18:44:45.220Z,2.80
2023-01-11T18:47:17.371Z,3.23
2023-01-11T18:49:44.862Z,4.93
2023-01-11T18:52:12.700Z,2.60
2023-01-11T18:54:40.302Z,2.80
2023-01-11T18:57:07.833Z,2.90
2023-01-11T18:59:36.675Z,3.20
2023-01-11T19:02:16.711Z,3.17
2023-01-11T19:04:44.753Z,3.47
2023-01-11T19:07:12.278Z,3.90
2023-01-11T19:09:39.848Z,3.67
2023-01-11T19:12:07.529Z,3.73
2023-01-11T19:14:36.430Z,3.87
2023-01-11T19:17:04.337Z,4.53
2023-01-11T19:19:32.060Z,3.70
2023-01-11T19:21:59.541Z,3.40
2023-01-11T19:24:26.971Z,3.40
2023-01-11T19:26:55.149Z,3.10
2023-01-11T19:29:24.648Z,3.30
2023-01-11T19:31:55.518Z,3.17
2023-01-11T19:34:23.311Z,3.77
2023-01-11T19:36:51.052Z,3.07
2023-01-11T19:39:18.751Z,3.00
2023-01-11T19:41:55.157Z,3.00
2023-01-11T19:44:23.384Z,3.00
2023-01-11T19:46:57.061Z,2.50
2023-01-11T19:49:38.250Z,2.47
2023-01-11T19:52:11.970Z,2.57
2023-01-11T19:54:39.469Z,2.47
2023-01-11T19:57:08.807Z,2.63
2023-01-11T19:59:36.325Z,2.73
2023-01-11T20:02:05.194Z,2.40
2023-01-11T20:04:32.718Z,2.57
2023-01-11T20:07:02.071Z,2.90
2023-01-11T20:09:29.590Z,2.57
2023-01-11T20:11:58.717Z,2.33
2023-01-11T20:14:26.463Z,2.27
2023-01-11T20:16:53.883Z,2.10
2023-01-11T20:19:21.357Z,2.20
2023-01-11T20:21:48.803Z,2.03
2023-01-11T20:24:17.811Z,2.03
2023-01-11T20:26:46.456Z,2.30
2023-01-11T20:29:15.147Z,2.00
2023-01-11T20:31:42.604Z,2.20
2023-01-11T20:34:11.973Z,1.90
2023-01-11T20:36:39.486Z,1.90
2023-01-11T20:39:07.279Z,2.20
2023-01-11T20:41:48.860Z,1.70
2023-01-11T20:44:17.959Z,2.30
2023-01-11T20:46:47.644Z,1.90
2023-01-11T20:49:15.485Z,2.03
2023-01-11T20:51:43.078Z,1.53
2023-01-11T20:54:10.860Z,2.60
2023-01-11T20:56:40.790Z,1.63
2023-01-11T20:59:09.159Z,3.07
2023-01-11T21:01:37.133Z,2.00
2023-01-11T21:04:05.860Z,1.70
2023-01-11T21:06:33.903Z,2.17
2023-01-11T21:09:03.205Z,1.70
2023-01-11T21:11:32.079Z,3.37
2023-01-11T21:14:02.146Z,1.83
2023-01-11T21:16:30.053Z,2.37
2023-01-11T21:18:58.080Z,2.03
2023-01-11T21:21:25.986Z,4.10
2023-01-11T21:23:54.944Z,1.90
2023-01-11T21:26:22.634Z,2.70
2023-01-11T21:28:51.649Z,2.03
2023-01-11T21:31:21.602Z,2.50
2023-01-11T21:33:49.496Z,2.13
2023-01-11T21:36:18.884Z,2.13
2023-01-11T21:38:46.448Z,3.57
2023-01-11T21:41:15.263Z,2.10
2023-01-11T21:43:43.335Z,1.83
2023-01-11T21:46:11.193Z,2.70
2023-01-11T21:48:40.186Z,1.90
2023-01-11T21:51:08.959Z,2.10
2023-01-11T21:53:36.698Z,2.87
2023-01-11T21:56:04.745Z,1.67
2023-01-11T21:58:32.224Z,1.90
2023-01-11T22:01:00.102Z,1.50
2023-01-11T22:03:28.959Z,1.70
2023-01-11T22:06:02.225Z,2.47
2023-01-11T22:08:30.068Z,2.83
2023-01-11T22:10:58.372Z,2.40
2023-01-11T22:13:25.837Z,2.90
2023-01-11T22:15:53.385Z,1.73
2023-01-11T22:18:22.119Z,1.93
2023-01-11T22:20:49.831Z,2.63
2023-01-11T22:23:18.677Z,1.87
2023-01-11T22:25:46.124Z,2.17
2023-01-11T22:28:13.577Z,2.17
2023-01-11T22:30:41.081Z,2.17
2023-01-11T22:33:08.550Z,1.87
2023-01-11T22:35:35.999Z,1.77
2023-01-11T22:38:03.460Z,1.63
2023-01-11T22:40:32.245Z,3.33
2023-01-11T22:42:59.657Z,1.43
2023-01-11T22:45:27.152Z,1.67
2023-01-11T22:47:54.755Z,1.33
2023-01-11T22:50:22.171Z,2.47
2023-01-11T22:52:49.672Z,1.20
2023-01-11T22:55:17.242Z,2.90
2023-01-11T22:57:46.062Z,1.67
2023-01-11T23:00:14.240Z,2.33
2023-01-11T23:02:41.723Z,1.60
2023-01-11T23:05:09.300Z,1.40
2023-01-11T23:07:36.841Z,2.90
2023-01-11T23:10:07.145Z,2.10
2023-01-11T23:12:51.817Z,1.40
2023-01-11T23:15:20.647Z,1.33
2023-01-11T23:17:48.096Z,1.30
2023-01-11T23:20:15.536Z,1.80
2023-01-11T23:22:43.026Z,1.90
2023-01-11T23:25:10.773Z,1.27
2023-01-11T23:27:38.236Z,3.13
2023-01-11T23:30:06.255Z,1.20
2023-01-11T23:32:35.532Z,1.50
2023-01-11T23:35:04.223Z,1.63
2023-01-11T23:37:31.686Z,1.43
2023-01-11T23:39:59.121Z,3.03
2023-01-11T23:42:28.519Z,1.63
2023-01-11T23:44:56.471Z,2.83
2023-01-11T23:47:24.790Z,1.53
2023-01-11T23:49:54.429Z,4.43
2023-01-11T23:52:22.731Z,1.53
2023-01-11T23:54:50.268Z,1.30
2023-01-11T23:57:18.192Z,1.73
2023-01-11T23:59:45.735Z,1.60
